VA56 weather

Wells Airport
Ivor, Virginia, United States

Public forecast

Using degrees Fahrenheit for public forecast. Weather courtesy of forecast.io.

METAR (pilot weather report)

Closest report is Wakefield Municipal Airport, 8.4 nm (15.5 km) W. Retrieved 2019/09/19 08:54 UTC (34 minutes ago):

KAKQ 190854Z AUTO 00000KT 10SM CLR 12/11 A3024 RMK AO2 SLP241 T01220106 53007

TAF (pilot weather forecast)

Closest forecast is Felker Army Air Field, 13.0 nm (24.1 km) NE. Retrieved 2019/09/19 10:03 UTC (0 seconds ago):

TAF KFAF 191000Z 1910/2016 05006KT 9999 FEW040 QNH3023INS BECMG 1915/1916 06010G15KT 9999 SCT040 QNH3027INS BECMG 2002/2003 VRB06KT 9999 FEW030 QNH3027INS TX22/1918Z TN15/2009Z